Latest Weather Observations for Cape Sorell

IDT60801

Issued at 3:02 am EDT Friday 6 March 2015 (issued every 30 minutes, with the page automatically refreshed every 10 minutes)

About weather observations | Map of weather stations | Latest weather observations for TAS | Other Formats
Station Details ID: 097000 Name: CAPE SORELL Lat: -42.20 Lon: 145.17 Height: 19.3 m
Data from the previous 72 hours. | See also: Recent months at Cape Sorell
Date/Time
EDT
Temp
°C
App
Temp
°C
Dew
Point
Rel
Hum
%
Delta-T
°C
Wind Press
QNH
hPa
Press
MSL
hPa
Rain
since 9 am
mm
Dir
 
Spd
km/h
Gust
km/h
Spd
kts
Gust
kts
06/03:00am 13.5 3.0 13.5 100 0.0 SW 61 74 33 40 999.7 999.7 8.4
06/02:34am 13.9 3.9 13.9 100 0.0 WSW 59 80 32 43 999.6 999.6 8.4
06/02:30am 14.0 4.4 14.0 100 0.0 WSW 57 72 31 39 999.6 999.6 8.4
06/02:00am 13.8 3.4 13.8 100 0.0 WSW 61 80 33 43 999.6 999.6 8.4
06/01:42am 13.7 5.0 13.7 100 0.0 WSW 52 70 28 38 999.7 999.7 8.4
06/01:30am 13.6 5.2 13.6 100 0.0 WSW 50 67 27 36 1000.0 1000.0 8.2
06/01:00am 13.5 5.5 13.5 100 0.0 WSW 48 65 26 35 1000.5 1000.5 8.0
06/12:35am 13.1 4.6 13.1 100 0.0 WSW 50 69 27 37 1000.6 1000.6 8.0
06/12:30am 13.1 4.2 13.1 100 0.0 W 52 69 28 37 1000.9 1000.9 8.0
06/12:01am 13.1 5.7 13.1 100 0.0 W 44 65 24 35 1001.3 1001.3 7.0
06/12:00am 13.1 5.7 13.1 100 0.0 W 44 59 24 32 1001.5 1001.5 7.0
 
Date/Time
EDT
Temp
°C
App
Temp
°C
Dew
Point
Rel
Hum
%
Delta-T
°C
Wind Press
QNH
hPa
Press
MSL
hPa
Rain
since 9 am
mm
Dir
 
Spd
km/h
Gust
km/h
Spd
kts
Gust
kts
05/11:30pm 12.8 4.9 12.8 100 0.0 W 46 65 25 35 1002.2 1002.2 6.4
05/11:05pm 12.7 6.1 12.7 100 0.0 W 39 61 21 33 1002.6 1002.6 5.8
05/11:00pm 12.7 6.1 12.7 100 0.0 W 39 54 21 29 1002.8 1002.8 5.8
05/10:36pm 12.5 4.5 12.3 99 0.1 W 46 65 25 35 1003.3 1003.3 5.4
05/10:30pm 12.5 4.9 12.3 99 0.1 W 44 61 24 33 1003.2 1003.2 5.4
05/10:00pm 12.4 4.3 12.2 99 0.1 W 46 67 25 36 1003.7 1003.7 4.8
05/09:30pm 12.1 3.2 11.8 98 0.2 W 50 72 27 39 1004.0 1004.0 4.8
05/09:00pm 12.2 3.9 11.4 95 0.4 W 46 67 25 36 1004.4 1004.4 4.4
05/08:45pm 12.3 4.4 11.4 94 0.5 W 44 63 24 34 1004.6 1004.6 4.2
05/08:30pm 12.1 3.3 11.0 93 0.6 W 48 65 26 35 1004.7 1004.7 4.0
05/08:05pm 12.1 4.7 11.2 94 0.5 W 41 61 22 33 1004.7 1004.7 4.0
05/08:00pm 11.6 3.6 10.3 92 0.7 W 43 57 23 31 1004.5 1004.5 4.0
05/07:30pm 11.7 3.0 10.1 90 0.8 W 46 65 25 35 1005.1 1005.1 3.6
05/07:23pm 11.8 4.1 10.2 90 0.8 W 41 61 22 33 1005.3 1005.3 3.6
05/07:00pm 11.6 3.4 9.7 88 1.0 W 43 57 23 31 1005.7 1005.7 3.2
05/06:30pm 11.9 2.5 8.9 82 1.5 W 48 70 26 38 1006.0 1006.0 2.6
05/06:03pm 11.9 4.6 8.6 80 1.6 W 37 57 20 31 1006.6 1006.6 2.0
05/06:00pm 11.7 3.9 8.2 79 1.7 W 39 57 21 31 1006.4 1006.4 2.0
05/05:32pm 11.9 4.0 8.0 77 1.9 W 39 63 21 34 1006.8 1006.8 1.6
05/05:30pm 11.9 4.4 8.0 77 1.9 W 37 52 20 28 1006.9 1006.9 1.6
05/05:00pm 11.4 2.3 6.7 73 2.2 W 44 72 24 39 1007.5 1007.5 1.6
05/04:30pm 11.5 2.6 6.8 73 2.2 W 43 69 23 37 1008.1 1008.1 1.6
05/04:24pm 12.7 4.7 7.4 70 2.6 W 39 61 21 33 1008.1 1008.1 1.4
05/04:00pm 13.2 5.7 8.1 71 2.5 W 37 52 20 28 1008.5 1008.5 1.4
05/03:30pm 12.8 7.5 8.5 75 2.1 W 26 39 14 21 1009.3 1009.3 1.4
05/03:00pm 11.7 3.3 7.4 75 2.1 WSW 41 54 22 29 1009.9 1009.9 1.4
05/02:49pm 12.4 4.2 6.5 67 2.8 WSW 39 57 21 31 1009.9 1009.9 1.4
05/02:30pm 13.3 6.1 5.9 61 3.5 WSW 33 46 18 25 1010.2 1010.2 1.4
05/02:00pm 13.2 4.8 7.2 67 2.9 WSW 41 54 22 29 1010.4 1010.4 1.4
05/01:48pm 13.0 4.1 7.0 67 2.9 WSW 43 61 23 33 1010.1 1010.1 1.4
05/01:30pm 13.2 4.9 7.6 69 2.7 WSW 41 52 22 28 1010.4 1010.4 1.4
05/01:12pm 12.4 4.6 8.1 75 2.1 WSW 39 57 21 31 1010.4 1010.4 1.4
05/01:00pm 12.0 3.9 8.5 79 1.7 SW 41 46 22 25 1010.9 1010.9 1.4
05/12:30pm 10.6 3.7 7.3 80 1.6 WSW 33 46 18 25 1011.3 1011.3 1.4
05/12:08pm 13.1 4.1 7.3 68 2.8 WSW 44 63 24 34 1010.8 1010.8 0.6
05/12:00pm 12.9 4.9 7.4 69 2.7 WSW 39 52 21 28 1011.0 1011.0 0.6
05/11:30am 12.1 3.2 7.6 74 2.2 SW 44 54 24 29 1011.0 1011.0 0.6
05/11:12am 12.3 3.3 7.2 71 2.5 SW 44 63 24 34 1011.0 1011.0 0.6
05/11:00am 12.3 2.7 7.8 74 2.2 SW 48 57 26 31 1011.1 1011.1 0.6
05/10:36am 10.5 0.6 6.8 78 1.7 SW 48 69 26 37 1011.3 1011.3 0.6
05/10:30am 10.6 1.1 6.6 76 1.9 SW 46 69 25 37 1010.7 1010.7 0.6
05/10:28am 11.2 2.4 7.1 76 2.0 SW 43 69 23 37 1010.3 1010.3 0.6
05/10:26am 11.4 3.7 7.3 76 2.0 SW 37 59 20 32 1010.8 1010.8 0.6
05/10:00am 10.3 1.4 7.0 80 1.6 SSW 43 52 23 28 1010.7 1010.7 0.6
05/09:49am 9.7 -1.0 6.4 80 1.5 SSW 52 72 28 39 1010.8 1010.8 0.6
05/09:43am 9.6 -2.1 6.1 79 1.6 SW 57 83 31 45 1010.5 1010.5 0.6
05/09:37am 10.2 1.2 6.5 78 1.7 SW 43 80 23 43 1009.5 1009.5 0.4
05/09:34am 10.1 1.8 6.3 77 1.8 SW 39 59 21 32 1010.3 1010.3 0.4
05/09:30am 9.6 0.4 5.6 76 1.8 SW 43 59 23 32 1010.2 1010.2 0.4
05/09:25am 10.7 2.5 6.5 75 2.0 SW 39 57 21 31 1010.0 1010.0 0.0
05/09:00am 9.6 -0.2 5.2 74 2.0 SSW 46 69 25 37 1009.9 1009.9 4.4
05/08:54am 9.7 -4.1 5.1 73 2.1 SW 67 85 36 46 1009.7 1009.7 4.4
05/08:47am 10.8 -2.2 5.6 70 2.4 SSW 63 85 34 46 1008.3 1008.3 4.4
05/08:30am 11.7 0.1 6.0 68 2.7 SSW 56 74 30 40 1008.8 1008.8 4.4
05/08:25am 11.7 0.1 6.0 68 2.7 SSW 56 74 30 40 1008.6 1008.6 4.4
05/08:00am 11.5 -1.3 6.2 70 2.5 SSW 63 78 34 42 1007.9 1007.9 4.4
05/07:30am 11.3 -1.2 6.0 70 2.5 SW 61 74 33 40 1007.1 1007.1 4.4
05/07:02am 10.7 -1.8 5.9 72 2.2 SSW 61 80 33 43 1006.9 1006.9 4.4
05/07:00am 10.7 -2.2 5.9 72 2.2 SSW 63 80 34 43 1006.7 1006.7 4.4
05/06:30am 10.5 -3.6 6.3 75 2.0 SW 70 89 38 48 1005.4 1005.4 4.4
05/06:29am 10.4 -4.2 6.2 75 2.0 SW 72 89 39 48 1005.3 1005.3 4.4
05/06:25am 10.7 -3.8 6.5 75 2.0 SW 72 89 39 48 1004.6 1004.6 4.4
05/06:04am 10.7 -1.2 7.2 79 1.7 SSW 59 80 32 43 1004.3 1004.3 4.4
05/06:00am 11.2 0.1 8.2 82 1.5 SSW 56 69 30 37 1004.8 1004.8 4.4
05/05:36am 10.0 -1.8 7.4 84 1.2 SW 59 78 32 42 1004.2 1004.2 4.4
05/05:30am 10.2 -2.9 6.9 80 1.6 SSW 65 78 35 42 1004.1 1004.1 4.2
05/05:00am 10.3 -3.7 5.9 74 2.0 SW 69 89 37 48 1003.2 1003.2 4.2
05/04:54am 11.6 -2.3 6.7 72 2.3 SW 69 89 37 48 1002.6 1002.6 4.2
05/04:30am 11.1 -2.8 6.5 73 2.2 SW 69 83 37 45 1002.1 1002.1 4.2
05/04:10am 11.8 -2.0 7.1 73 2.3 SW 69 95 37 51 1001.5 1001.5 4.2
05/04:00am 11.4 -2.1 6.7 73 2.2 SW 67 80 36 43 1001.5 1001.5 4.2
05/03:30am 11.9 -0.7 7.2 73 2.3 SW 63 72 34 39 1001.1 1001.1 4.2
05/03:00am 11.9 -1.3 7.8 76 2.0 SW 67 80 36 43 1000.3 1000.3 4.2
05/02:30am 11.3 -2.4 8.2 81 1.5 SW 70 85 38 46 999.6 999.6 4.2
05/02:23am 12.1 0.5 8.4 78 1.8 SW 59 82 32 44 999.4 999.4 4.2
05/02:00am 11.1 0.1 8.3 83 1.4 SW 56 65 30 35 1000.0 1000.0 4.2
05/01:51am 10.5 -3.2 8.3 86 1.1 SW 70 87 38 47 999.8 999.8 4.2
05/01:36am 10.7 -3.9 7.6 81 1.5 SW 74 106 40 57 998.9 998.9 4.2
05/01:33am 10.9 -2.9 7.2 78 1.8 SW 69 106 37 57 998.4 998.4 4.2
05/01:31am 12.6 0.5 9.4 81 1.6 SW 63 91 34 49 999.3 999.3 4.2
05/01:30am 12.4 0.6 9.1 80 1.7 SW 61 72 33 39 999.5 999.5 4.2
05/01:00am 11.5 0.1 8.9 84 1.3 WSW 59 83 32 45 998.9 998.9 4.2
05/12:44am 11.5 1.8 9.2 86 1.2 WSW 50 69 27 37 999.1 999.1 4.2
05/12:30am 11.7 3.0 9.9 89 0.9 SW 46 56 25 30 999.7 999.7 4.2
05/12:00am 11.5 2.1 10.1 91 0.7 SW 50 67 27 36 999.6 999.6 4.2
 
Date/Time
EDT
Temp
°C
App
Temp
°C
Dew
Point
Rel
Hum
%
Delta-T
°C
Wind Press
QNH
hPa
Press
MSL
hPa
Rain
since 9 am
mm
Dir
 
Spd
km/h
Gust
km/h
Spd
kts
Gust
kts
04/11:50pm 12.3 3.0 10.5 89 0.9 WSW 50 72 27 39 999.1 999.1 4.0
04/11:30pm 11.8 1.0 10.0 89 0.9 WSW 57 70 31 38 999.5 999.5 4.0
04/11:00pm 12.2 3.4 10.9 92 0.7 WSW 48 61 26 33 999.7 999.7 4.0
04/10:30pm 12.2 4.1 10.8 91 0.7 W 44 63 24 34 999.8 999.8 3.8
04/10:15pm 12.7 4.7 11.1 90 0.8 W 44 67 24 36 999.2 999.2 3.8
04/10:00pm 12.7 3.7 10.4 86 1.2 W 48 80 26 43 999.6 999.6 3.8
04/09:58pm 12.5 2.3 9.9 84 1.3 W 54 85 29 46 999.5 999.5 3.8
04/09:48pm 15.0 7.0 10.6 75 2.3 NW 43 85 23 46 999.7 999.7 1.8
04/09:47pm 15.0 7.4 10.4 74 2.4 NW 41 61 22 33 999.5 999.5 1.8
04/09:30pm 15.3 7.4 11.3 77 2.1 WNW 44 54 24 29 999.9 999.9 1.8
04/09:12pm 15.0 8.4 11.4 79 1.9 NW 37 56 20 30 1000.2 1000.2 1.8
04/09:00pm 14.9 7.5 11.3 79 1.9 WNW 41 56 22 30 1000.1 1000.1 1.8
04/08:30pm 15.0 7.4 11.8 81 1.7 NW 43 56 23 30 1000.5 1000.5 1.8
04/08:00pm 14.8 9.2 12.1 84 1.5 NW 33 50 18 27 1000.4 1000.4 1.8
04/07:30pm 14.8 8.9 12.3 85 1.4 NW 35 57 19 31 1000.8 1000.8 1.8
04/07:00pm 13.9 6.5 11.1 83 1.5 WNW 41 54 22 29 1001.4 1001.4 1.8
04/06:30pm 15.1 8.5 12.6 85 1.4 NW 39 56 21 30 1001.6 1001.6 1.8
04/06:07pm 14.2 7.9 12.4 89 1.0 NW 37 56 20 30 1001.9 1001.9 1.8
04/06:00pm 14.5 9.7 13.0 91 0.8 NW 30 44 16 24 1002.1 1002.1 1.8
04/05:39pm 14.7 9.4 12.6 87 1.1 NW 32 54 17 29 1002.3 1002.3 1.8
04/05:30pm 15.1 10.3 13.0 87 1.2 NW 30 46 16 25 1002.4 1002.4 1.8
04/05:00pm 15.3 10.0 13.0 86 1.3 NW 33 46 18 25 1002.7 1002.7 1.8
04/04:30pm 15.4 10.2 13.4 88 1.1 WNW 33 41 18 22 1003.1 1003.1 1.8
04/04:00pm 14.2 7.9 12.2 88 1.1 WNW 37 50 20 27 1003.7 1003.7 1.8
04/03:40pm 13.5 5.4 10.1 80 1.8 W 43 61 23 33 1004.2 1004.2 1.6
04/03:30pm 14.9 8.0 10.3 74 2.4 NW 37 56 20 30 1004.2 1004.2 1.4
04/03:29pm 15.7 9.5 11.3 75 2.4 NW 35 56 19 30 1004.3 1004.3 1.4
04/03:00pm 16.4 11.0 12.2 76 2.3 NW 32 46 17 25 1004.7 1004.7 1.4
04/02:30pm 16.7 11.6 12.0 74 2.6 NW 30 39 16 21 1005.1 1005.1 1.4
04/02:00pm 17.0 12.0 12.1 73 2.7 NW 30 43 16 23 1005.0 1005.0 1.4
04/01:32pm 16.2 9.5 12.4 78 2.1 WNW 39 59 21 32 1005.2 1005.2 1.4
04/01:30pm 16.3 10.1 12.5 78 2.1 WNW 37 46 20 25 1005.3 1005.3 1.4
04/01:00pm 16.6 11.2 13.9 84 1.5 WNW 35 44 19 24 1005.6 1005.6 1.4
04/12:30pm 16.4 11.1 15.3 93 0.6 WNW 37 46 20 25 1006.1 1006.1 1.4
04/12:00pm 14.7 10.8 14.4 98 0.2 WNW 28 37 15 20 1006.5 1006.5 1.4
04/11:30am 14.0 8.4 13.4 96 0.3 W 35 59 19 32 1007.0 1007.0 1.4
04/11:24am 13.8 6.8 12.5 92 0.7 W 41 61 22 33 1007.0 1007.0 1.4
04/11:22am 14.1 6.8 12.7 91 0.8 WNW 43 61 23 33 1006.6 1006.6 1.2
04/11:20am 15.5 9.2 14.7 95 0.5 WNW 41 61 22 33 1006.7 1006.7 1.2
04/11:00am 15.7 11.2 15.5 99 0.1 WNW 33 41 18 22 1007.1 1007.1 1.2
04/10:47am 15.4 11.4 15.2 99 0.1 NW 30 48 16 26 1007.0 1007.0 1.2
04/10:30am 15.0 9.1 14.8 99 0.1 WNW 39 52 21 28 1007.1 1007.1 1.2
04/10:00am 14.4 9.1 14.1 98 0.2 WNW 35 44 19 24 1007.1 1007.1 1.2
04/09:45am 14.2 7.0 13.2 94 0.6 WNW 43 54 23 29 1006.8 1006.8 0.4
04/09:35am 14.9 9.0 13.6 92 0.7 NW 37 57 20 31 1006.9 1006.9 0.0
04/09:30am 15.2 10.2 13.9 92 0.7 NW 33 44 18 24 1007.1 1007.1 0.0
04/09:00am 15.4 9.2 13.8 90 0.9 NW 39 54 21 29 1007.3 1007.3 0.8
04/08:33am 14.8 8.9 13.5 92 0.7 NW 37 56 20 30 1007.2 1007.2 0.8
04/08:30am 15.2 9.9 14.1 93 0.6 NW 35 48 19 26 1007.2 1007.2 0.8
04/08:00am 14.8 10.0 14.0 95 0.5 NW 32 43 17 23 1007.2 1007.2 0.8
04/07:30am 14.5 8.0 12.9 90 0.9 NW 39 57 21 31 1007.2 1007.2 0.8
04/07:00am 15.0 8.6 13.2 89 1.0 NW 39 52 21 28 1006.7 1006.7 0.4
04/06:30am 14.4 8.2 12.8 90 0.9 NW 37 44 20 24 1006.8 1006.8 0.4
04/06:00am 13.9 8.5 12.1 89 1.0 NW 32 41 17 22 1007.1 1007.1 0.4
04/05:33am 15.0 8.0 11.2 78 2.0 WNW 39 57 21 31 1007.5 1007.5 0.0
04/05:30am 15.1 8.9 11.3 78 2.0 NW 35 50 19 27 1007.4 1007.4 0.0
04/05:00am 14.8 8.5 11.2 79 1.9 NW 35 48 19 26 1007.5 1007.5 0.0
04/04:30am 13.7 5.7 10.5 81 1.7 WNW 43 56 23 30 1007.8 1007.8 0.0
04/04:01am 14.8 7.6 10.6 76 2.2 NW 39 57 21 31 1008.0 1008.0 0.0
04/04:00am 14.9 8.1 10.7 76 2.2 NW 37 54 20 29 1008.0 1008.0 0.0
04/03:30am 15.3 9.4 11.1 76 2.2 NNW 33 43 18 23 1008.2 1008.2 0.0
04/03:00am 15.0 9.0 10.8 76 2.2 NW 33 44 18 24 1008.7 1008.7 0.0
04/02:30am 14.2 8.2 10.2 77 2.1 NNW 32 41 17 22 1009.3 1009.3 0.0
04/02:03am 14.3 6.8 9.3 72 2.6 NW 39 63 21 34 1009.8 1009.8 0.0
04/02:00am 14.3 7.1 9.1 71 2.7 NW 37 50 20 27 1009.9 1009.9 0.0
04/01:36am 15.2 8.6 8.4 64 3.4 NW 33 52 18 28 1010.0 1010.0 0.0
04/01:30am 15.3 8.6 8.1 62 3.6 NW 33 41 18 22 1010.1 1010.1 0.0
04/01:00am 15.0 9.9 9.1 68 3.0 NW 26 35 14 19 1010.3 1010.3 0.0
04/12:30am 14.4 8.6 9.6 73 2.5 NW 30 41 16 22 1010.7 1010.7 0.0
04/12:00am 14.6 8.8 9.4 71 2.7 NW 30 39 16 21 1011.2 1011.2 0.0
 
Date/Time
EDT
Temp
°C
App
Temp
°C
Dew
Point
Rel
Hum
%
Delta-T
°C
Wind Press
QNH
hPa
Press
MSL
hPa
Rain
since 9 am
mm
Dir
 
Spd
km/h
Gust
km/h
Spd
kts
Gust
kts
03/11:30pm 14.7 8.5 9.5 71 2.7 NW 32 44 17 24 1011.7 1011.7 0.0
03/11:00pm 15.1 9.2 7.6 61 3.7 NW 28 39 15 21 1011.8 1011.8 0.0
03/10:30pm 14.9 9.5 7.9 63 3.5 NW 26 35 14 19 1012.0 1012.0 0.0
03/10:00pm 14.9 8.4 9.1 68 3.0 NW 33 44 18 24 1012.2 1012.2 0.0
03/09:30pm 14.0 7.5 8.8 71 2.6 WNW 33 44 18 24 1012.5 1012.5 0.0
03/09:00pm 14.9 9.2 8.2 64 3.4 NW 28 35 15 19 1012.4 1012.4 0.0
03/08:30pm 14.9 9.2 8.4 65 3.3 NNW 28 35 15 19 1012.4 1012.4 0.0
03/08:00pm 14.9 9.4 7.7 62 3.6 NW 26 35 14 19 1012.7 1012.7 0.0
03/07:30pm 14.7 9.4 7.0 60 3.8 NW 24 32 13 17 1012.9 1012.9 0.0
03/07:00pm 14.9 10.3 6.5 57 4.1 NW 20 30 11 16 1013.0 1013.0 0.0
03/06:30pm 14.9 10.3 6.5 57 4.1 NW 20 28 11 15 1013.2 1013.2 0.0
03/06:00pm 15.7 10.1 7.0 56 4.3 NW 26 33 14 18 1013.4 1013.4 0.0
03/05:30pm 16.5 10.4 6.6 52 4.9 WNW 28 39 15 21 1013.5 1013.5 0.0
03/05:00pm 17.1 12.3 7.2 52 4.9 NW 22 30 12 16 1013.5 1013.5 0.0
03/04:30pm 17.0 11.1 7.4 53 4.8 WNW 28 35 15 19 1013.8 1013.8 0.0
03/04:00pm 15.7 10.6 7.5 58 4.1 NNW 24 33 13 18 1014.1 1014.1 0.0
03/03:30pm 17.2 13.0 7.3 52 5.0 NW 19 28 10 15 1014.3 1014.3 0.0
03/03:00pm 18.3 14.7 8.3 52 5.1 NNW 17 24 9 13 1014.5 1014.5 0.0
03/02:30pm 17.4 13.8 6.9 50 5.2 NNW 15 22 8 12 1014.7 1014.7 0.0
03/02:00pm 17.7 14.2 5.6 45 5.9 NNW 13 20 7 11 1014.8 1014.8 0.0
03/01:30pm 19.4 16.7 7.5 46 6.1 NW 11 15 6 8 1015.1 1015.1 0.0
03/01:00pm 19.1 16.5 7.8 48 5.8 WNW 11 15 6 8 1015.3 1015.3 0.0
03/12:30pm 18.2 16.1 8.2 52 5.1 W 9 13 5 7 1015.6 1015.6 0.0
03/12:00pm 16.9 15.0 7.5 54 4.7 W 7 15 4 8 1016.0 1015.9 0.0
03/11:30am 16.8 14.5 7.4 54 4.7 W 9 15 5 8 1016.0 1015.9 0.0
03/11:00am 16.0 13.5 8.2 60 3.9 WSW 11 15 6 8 1016.1 1016.0 0.0
03/10:30am 14.9 11.3 8.4 65 3.3 SW 17 20 9 11 1016.0 1015.9 0.0
03/10:00am 15.1 12.0 9.0 67 3.1 SW 15 17 8 9 1015.8 1015.7 0.0
03/09:30am 14.3 11.5 8.5 68 2.9 SW 13 17 7 9 1015.3 1015.3 0.0
03/09:00am 14.0 10.4 8.4 69 2.8 SW 17 22 9 12 1015.3 1015.3 0.8
03/08:30am 13.9 9.7 8.3 69 2.8 SW 20 26 11 14 1015.1 1015.1 0.8
03/08:00am 13.8 9.6 8.4 70 2.7 WSW 20 30 11 16 1014.9 1014.9 0.8
03/07:30am 13.6 8.0 8.7 72 2.5 SW 28 32 15 17 1014.4 1014.4 0.8
03/07:00am 13.5 8.2 8.6 72 2.5 WSW 26 32 14 17 1014.2 1014.2 0.8
03/06:30am 13.8 9.0 10.2 79 1.9 SW 26 30 14 16 1014.0 1014.0 0.8
03/06:00am 13.5 8.5 10.9 84 1.4 SW 28 33 15 18 1013.7 1013.7 0.8
03/05:30am 13.6 8.8 11.7 88 1.0 SW 28 32 15 17 1013.6 1013.6 0.8
03/05:00am 13.8 9.1 12.0 89 1.0 SW 28 35 15 19 1013.2 1013.2 0.8
03/04:30am 13.6 9.1 12.5 93 0.6 SW 28 33 15 18 1013.1 1013.1 0.8
03/04:00am 13.7 9.7 13.1 96 0.3 WSW 26 32 14 17 1012.9 1012.9 0.8
03/03:30am 13.6 11.0 13.1 97 0.3 WSW 19 22 10 12 1012.9 1012.9 0.8

Other Formats:

Comma delimited format used in spreadsheet applications
http://www.bom.gov.au/fwo/IDT60801/IDT60801.94974.axf

JavaScript Object Notation format (JSON) in row-major order
http://www.bom.gov.au/fwo/IDT60801/IDT60801.94974.json